createdAt,value
2023-06-30T00:01:06.822Z,64.50
2023-06-30T00:03:34.890Z,64.64
2023-06-30T00:06:02.932Z,64.51
2023-06-30T00:08:30.868Z,65.21
2023-06-30T00:10:58.967Z,65.88
2023-06-30T00:13:27.129Z,65.54
2023-06-30T00:15:55.598Z,65.14
2023-06-30T00:18:25.127Z,64.96
2023-06-30T00:20:55.640Z,65.94
2023-06-30T00:23:23.589Z,65.82
2023-06-30T00:25:51.612Z,65.57
2023-06-30T00:28:19.814Z,66.09
2023-06-30T00:30:47.769Z,66.21
2023-06-30T00:33:15.696Z,66.87
2023-06-30T00:35:45.277Z,67.40
2023-06-30T00:38:13.496Z,67.81
2023-06-30T00:40:41.384Z,70.20
2023-06-30T00:43:10.308Z,70.88
2023-06-30T00:45:38.190Z,72.83
2023-06-30T00:48:07.029Z,74.38
2023-06-30T00:50:35.290Z,75.16
2023-06-30T00:53:05.776Z,76.82
2023-06-30T00:55:34.326Z,77.77
2023-06-30T00:58:02.430Z,78.64
2023-06-30T01:00:30.358Z,80.40
2023-06-30T01:03:03.995Z,81.36
2023-06-30T01:05:38.528Z,82.14
2023-06-30T01:08:14.345Z,82.75
2023-06-30T01:10:43.872Z,83.20
2023-06-30T01:13:12.204Z,84.15
2023-06-30T01:15:44.495Z,84.68
2023-06-30T01:18:13.870Z,86.22
2023-06-30T01:20:42.366Z,88.78
2023-06-30T01:23:14.429Z,89.89
2023-06-30T01:25:42.904Z,91.55
2023-06-30T01:28:12.881Z,91.11
2023-06-30T01:30:40.849Z,90.88
2023-06-30T01:33:09.002Z,91.34
2023-06-30T01:35:37.067Z,92.25
2023-06-30T01:38:05.053Z,92.44
2023-06-30T01:40:34.605Z,92.01
2023-06-30T01:43:02.655Z,92.37
2023-06-30T01:45:31.141Z,92.22
2023-06-30T01:47:59.459Z,92.20
2023-06-30T01:50:30.723Z,93.14
2023-06-30T01:52:58.702Z,93.66
2023-06-30T01:55:26.893Z,92.62
2023-06-30T01:57:56.151Z,93.32
2023-06-30T02:00:24.149Z,94.67
2023-06-30T02:02:52.108Z,94.33
2023-06-30T02:05:20.096Z,93.30
2023-06-30T02:07:48.000Z,92.49
2023-06-30T02:10:15.980Z,91.89
2023-06-30T02:12:45.537Z,91.41
2023-06-30T02:15:14.887Z,90.82
2023-06-30T02:17:42.886Z,91.80
2023-06-30T02:20:12.203Z,92.04
2023-06-30T02:22:40.245Z,91.06
2023-06-30T02:25:08.779Z,91.41
2023-06-30T02:27:36.708Z,91.69
2023-06-30T02:30:06.764Z,91.56
2023-06-30T02:32:39.718Z,91.73
2023-06-30T02:35:09.014Z,92.65
2023-06-30T02:37:37.936Z,91.69
2023-06-30T02:40:07.150Z,92.34
2023-06-30T02:42:35.139Z,92.11
2023-06-30T02:45:05.008Z,92.66
2023-06-30T02:47:33.768Z,92.65
2023-06-30T02:50:03.888Z,93.17
2023-06-30T02:52:34.271Z,92.54
2023-06-30T02:55:03.443Z,92.43
2023-06-30T02:57:32.312Z,93.26
2023-06-30T03:00:00.621Z,94.00
2023-06-30T03:02:28.808Z,94.91
2023-06-30T03:04:57.870Z,94.28
2023-06-30T03:07:28.525Z,94.54
2023-06-30T03:09:57.401Z,95.33
2023-06-30T03:12:26.055Z,93.83
2023-06-30T03:14:54.673Z,94.52
2023-06-30T03:17:24.566Z,94.04
2023-06-30T03:19:53.218Z,94.83
2023-06-30T03:22:21.769Z,92.87
2023-06-30T03:24:51.112Z,93.46
2023-06-30T03:27:18.980Z,94.15
2023-06-30T03:29:46.966Z,94.15
2023-06-30T03:32:15.335Z,93.00
2023-06-30T03:34:43.283Z,92.84
2023-06-30T03:37:11.150Z,92.93
2023-06-30T03:39:39.757Z,94.05
2023-06-30T03:42:09.861Z,94.95
2023-06-30T03:44:39.498Z,93.32
2023-06-30T03:47:07.767Z,92.90
2023-06-30T03:49:35.912Z,92.64
2023-06-30T03:52:05.604Z,92.46
2023-06-30T03:54:34.478Z,92.38
2023-06-30T03:57:02.350Z,92.71
2023-06-30T03:59:31.892Z,92.43
2023-06-30T04:01:59.815Z,92.66
2023-06-30T04:04:27.923Z,91.51
2023-06-30T04:06:56.943Z,92.15
2023-06-30T04:09:24.986Z,92.54
2023-06-30T04:11:53.171Z,92.27
2023-06-30T04:14:21.456Z,92.35
2023-06-30T04:16:50.743Z,92.25
2023-06-30T04:19:18.741Z,91.84
2023-06-30T04:21:47.999Z,91.47
2023-06-30T04:24:15.894Z,90.18
2023-06-30T04:26:43.862Z,90.65
2023-06-30T04:29:11.810Z,90.46
2023-06-30T04:31:39.652Z,90.57
2023-06-30T04:34:09.152Z,90.72
2023-06-30T04:36:37.088Z,90.98
2023-06-30T04:39:05.366Z,91.70
2023-06-30T04:41:33.311Z,90.84
2023-06-30T04:44:01.357Z,88.92
2023-06-30T04:46:29.673Z,88.19
2023-06-30T04:48:57.896Z,88.74
2023-06-30T04:51:27.607Z,88.57
2023-06-30T04:53:55.536Z,88.18
2023-06-30T04:56:23.601Z,87.98
2023-06-30T04:58:52.360Z,87.26
2023-06-30T05:01:20.530Z,86.18
2023-06-30T05:03:48.949Z,84.88
2023-06-30T05:06:17.023Z,85.86
2023-06-30T05:08:46.329Z,85.65
2023-06-30T05:11:14.286Z,84.90
2023-06-30T05:13:42.241Z,85.15
2023-06-30T05:16:12.323Z,85.75
2023-06-30T05:18:40.841Z,85.23
2023-06-30T05:21:09.302Z,84.92
2023-06-30T05:23:37.184Z,85.20
2023-06-30T05:26:06.964Z,85.16
2023-06-30T05:28:36.677Z,82.09
2023-06-30T05:31:04.723Z,81.47
2023-06-30T05:33:32.683Z,81.30
2023-06-30T05:36:00.621Z,80.42
2023-06-30T05:38:28.586Z,79.86
2023-06-30T05:40:56.555Z,79.93
2023-06-30T05:43:25.774Z,78.86
2023-06-30T05:45:53.701Z,77.77
2023-06-30T05:48:21.757Z,76.76
2023-06-30T05:50:49.875Z,76.55
2023-06-30T05:53:17.765Z,75.51
2023-06-30T05:55:45.974Z,76.02
2023-06-30T05:58:14.324Z,77.30
2023-06-30T06:00:43.611Z,76.28
2023-06-30T06:03:11.840Z,75.67
2023-06-30T06:05:40.042Z,73.10
2023-06-30T06:08:08.178Z,71.75
2023-06-30T06:10:36.060Z,70.56
2023-06-30T06:13:04.004Z,70.89
2023-06-30T06:15:32.121Z,71.42
2023-06-30T06:18:01.530Z,71.75
2023-06-30T06:20:29.609Z,71.63
2023-06-30T06:22:57.604Z,70.03
2023-06-30T06:25:25.557Z,70.06
2023-06-30T06:27:53.420Z,70.26
2023-06-30T06:30:21.344Z,72.04
2023-06-30T06:32:49.307Z,73.76
2023-06-30T06:35:18.962Z,74.36
2023-06-30T06:37:46.853Z,73.20
2023-06-30T06:40:14.751Z,71.83
2023-06-30T06:42:42.725Z,71.52
2023-06-30T06:45:11.197Z,71.55
2023-06-30T06:48:19.474Z,67.80
2023-06-30T06:50:48.914Z,66.85
2023-06-30T06:53:20.198Z,66.81
2023-06-30T06:55:49.180Z,67.83
2023-06-30T06:58:17.174Z,67.84
2023-06-30T07:00:46.236Z,67.19
2023-06-30T07:03:14.180Z,67.08
2023-06-30T07:05:42.433Z,66.69
2023-06-30T07:08:11.905Z,68.20
2023-06-30T07:10:39.936Z,67.67
2023-06-30T07:13:08.226Z,67.67
2023-06-30T07:15:36.519Z,69.80
2023-06-30T07:18:05.009Z,70.12
2023-06-30T07:20:33.136Z,69.03
2023-06-30T07:23:01.139Z,69.98
2023-06-30T07:25:30.496Z,70.43
2023-06-30T07:27:59.299Z,69.53
2023-06-30T07:30:28.105Z,70.28
2023-06-30T07:32:56.452Z,70.17
2023-06-30T07:35:25.139Z,69.86
2023-06-30T07:37:53.168Z,69.47
2023-06-30T07:40:23.985Z,69.62
2023-06-30T07:42:54.512Z,69.13
2023-06-30T07:45:22.606Z,69.09
2023-06-30T07:47:50.611Z,69.11
2023-06-30T07:50:18.564Z,68.66
2023-06-30T07:52:49.006Z,67.58
2023-06-30T07:55:18.117Z,68.99
2023-06-30T07:57:46.405Z,68.18
2023-06-30T08:00:19.242Z,69.37
2023-06-30T08:02:48.274Z,69.44
2023-06-30T08:05:16.508Z,69.95
2023-06-30T08:07:48.959Z,70.22
2023-06-30T08:10:18.960Z,70.42
2023-06-30T08:12:46.968Z,72.32
2023-06-30T08:15:16.366Z,73.05
2023-06-30T08:17:51.335Z,73.35
2023-06-30T08:20:23.830Z,72.86
2023-06-30T08:22:52.041Z,73.19
2023-06-30T08:25:21.868Z,72.25
2023-06-30T08:27:49.832Z,71.82
2023-06-30T08:30:22.061Z,70.39
2023-06-30T08:32:52.634Z,71.55
2023-06-30T08:35:20.632Z,70.58
2023-06-30T08:37:52.018Z,69.41
2023-06-30T08:40:22.174Z,68.25
2023-06-30T08:42:52.399Z,68.45
2023-06-30T08:45:25.068Z,67.57
2023-06-30T08:47:53.455Z,68.33
2023-06-30T08:50:22.834Z,67.57
2023-06-30T08:52:51.020Z,68.31
2023-06-30T08:55:19.043Z,67.34
2023-06-30T08:57:47.264Z,64.41
2023-06-30T09:00:16.280Z,64.75
2023-06-30T09:02:46.016Z,63.11
2023-06-30T09:05:14.333Z,61.49
2023-06-30T09:07:47.738Z,61.15
2023-06-30T09:10:16.233Z,61.36
2023-06-30T09:12:47.537Z,62.78
2023-06-30T09:15:16.935Z,64.65
2023-06-30T09:17:46.277Z,65.93
2023-06-30T09:20:15.308Z,65.98
2023-06-30T09:22:55.175Z,64.76
2023-06-30T09:25:39.410Z,64.38
2023-06-30T09:28:11.132Z,63.76
2023-06-30T09:30:41.740Z,66.09
2023-06-30T09:33:11.052Z,66.06
2023-06-30T09:35:39.866Z,68.03
2023-06-30T09:38:12.197Z,67.58
2023-06-30T09:40:40.614Z,66.77
2023-06-30T09:43:09.108Z,67.99
2023-06-30T09:45:37.249Z,69.03
2023-06-30T09:48:07.944Z,71.43
2023-06-30T09:50:37.763Z,75.42
2023-06-30T09:53:06.675Z,80.31
2023-06-30T09:55:34.594Z,79.05
2023-06-30T09:58:02.561Z,81.26
2023-06-30T10:00:36.366Z,80.22
2023-06-30T10:03:06.356Z,80.64
2023-06-30T10:05:34.460Z,80.73
2023-06-30T10:08:03.929Z,80.08
2023-06-30T10:10:31.930Z,79.65
2023-06-30T10:13:00.683Z,78.75
2023-06-30T10:15:28.857Z,78.92
2023-06-30T10:17:56.927Z,79.23
2023-06-30T10:20:38.090Z,79.98
2023-06-30T10:23:14.256Z,80.50
2023-06-30T10:25:42.481Z,80.11
2023-06-30T10:28:10.635Z,80.07
2023-06-30T10:30:39.454Z,80.52
2023-06-30T10:33:07.712Z,82.18
2023-06-30T10:35:36.841Z,81.54
2023-06-30T10:38:04.973Z,80.65
2023-06-30T10:40:34.372Z,79.38
2023-06-30T10:43:02.296Z,78.61
2023-06-30T10:45:31.720Z,79.17
2023-06-30T10:47:59.838Z,80.39
2023-06-30T10:50:27.741Z,80.23
2023-06-30T10:52:56.376Z,80.86
2023-06-30T10:55:24.950Z,79.87
2023-06-30T10:57:55.854Z,80.17
2023-06-30T11:00:25.801Z,82.08
2023-06-30T11:02:58.408Z,84.09
2023-06-30T11:05:27.620Z,83.21
2023-06-30T11:07:56.563Z,83.66
2023-06-30T11:10:28.854Z,81.55
2023-06-30T11:12:58.795Z,82.08
2023-06-30T11:15:37.295Z,81.66
2023-06-30T11:18:07.341Z,79.76
2023-06-30T11:20:35.426Z,79.05
2023-06-30T11:23:04.866Z,76.87
2023-06-30T11:25:33.975Z,76.29
2023-06-30T11:28:05.736Z,77.03
2023-06-30T11:30:38.197Z,76.23
2023-06-30T11:33:07.312Z,76.34
2023-06-30T11:35:36.537Z,78.18
2023-06-30T11:38:04.973Z,78.96
2023-06-30T11:40:32.900Z,79.25
2023-06-30T11:43:04.105Z,80.06
2023-06-30T11:45:32.057Z,79.96
2023-06-30T11:48:00.040Z,79.63
2023-06-30T11:50:31.358Z,81.23
2023-06-30T11:53:00.104Z,81.48
2023-06-30T11:55:29.176Z,82.71
2023-06-30T11:57:57.340Z,83.59
2023-06-30T12:00:27.130Z,82.73
2023-06-30T12:02:59.755Z,82.33
2023-06-30T12:05:28.912Z,83.76
2023-06-30T12:07:58.271Z,84.60
2023-06-30T12:10:39.541Z,82.88
2023-06-30T12:13:08.684Z,82.98
2023-06-30T12:15:42.513Z,82.19
2023-06-30T12:18:10.656Z,82.15
2023-06-30T12:20:41.890Z,81.35
2023-06-30T12:23:09.952Z,81.41
2023-06-30T12:25:38.296Z,84.66
2023-06-30T12:28:06.583Z,83.42
2023-06-30T12:30:35.458Z,81.13
2023-06-30T12:33:05.153Z,80.52
2023-06-30T12:35:35.654Z,79.74
2023-06-30T12:38:05.629Z,79.84
2023-06-30T12:40:33.594Z,80.09
2023-06-30T12:43:01.603Z,81.41
2023-06-30T12:45:29.569Z,83.82
2023-06-30T12:47:57.531Z,83.60
2023-06-30T12:50:26.788Z,83.89
2023-06-30T12:52:54.697Z,86.10
2023-06-30T12:55:23.036Z,84.19
2023-06-30T12:57:51.035Z,85.82
2023-06-30T13:00:19.621Z,85.72
2023-06-30T13:02:47.526Z,85.60
2023-06-30T13:05:15.633Z,84.20
2023-06-30T13:07:45.576Z,83.49
2023-06-30T13:10:14.735Z,83.27
2023-06-30T13:12:42.728Z,82.49
2023-06-30T13:15:11.140Z,81.66
2023-06-30T13:17:39.132Z,82.28
2023-06-30T13:20:09.053Z,81.49
2023-06-30T13:22:42.717Z,81.08
2023-06-30T13:25:20.578Z,81.23
2023-06-30T13:27:48.595Z,82.86
2023-06-30T13:30:16.568Z,83.71
2023-06-30T13:32:45.032Z,83.40
2023-06-30T13:35:13.011Z,81.97
2023-06-30T13:37:40.988Z,80.93
2023-06-30T13:40:10.152Z,82.18
2023-06-30T13:42:39.403Z,82.30
2023-06-30T13:45:10.976Z,81.75
2023-06-30T13:47:39.285Z,80.91
2023-06-30T13:50:08.410Z,80.78
2023-06-30T13:52:36.276Z,80.52
2023-06-30T13:55:04.417Z,81.89
2023-06-30T13:57:32.392Z,82.41
2023-06-30T14:00:01.981Z,80.89
2023-06-30T14:02:33.627Z,81.93
2023-06-30T14:05:01.707Z,81.00
2023-06-30T14:07:29.880Z,80.73
2023-06-30T14:09:59.331Z,80.98
2023-06-30T14:12:27.282Z,81.47
2023-06-30T14:14:55.162Z,82.15
2023-06-30T14:17:24.814Z,82.52
2023-06-30T14:19:52.671Z,81.73
2023-06-30T14:22:20.706Z,82.32
2023-06-30T14:24:48.788Z,82.11
2023-06-30T14:27:16.803Z,81.71
2023-06-30T14:29:44.866Z,80.83
2023-06-30T14:32:12.860Z,80.10
2023-06-30T14:34:43.190Z,79.47
2023-06-30T14:37:11.153Z,79.17
2023-06-30T14:39:39.096Z,78.90
2023-06-30T14:42:11.145Z,78.23
2023-06-30T14:44:44.230Z,77.64
2023-06-30T14:47:12.072Z,75.33
2023-06-30T14:49:39.964Z,72.96
2023-06-30T14:52:09.469Z,68.60
2023-06-30T14:54:37.550Z,61.63
2023-06-30T14:57:05.727Z,60.00
2023-06-30T14:59:33.726Z,59.33
2023-06-30T15:02:01.678Z,60.13
2023-06-30T15:04:29.618Z,61.70
2023-06-30T15:06:57.594Z,61.32
2023-06-30T15:09:26.871Z,63.07
2023-06-30T15:11:54.748Z,63.02
2023-06-30T15:14:22.676Z,63.12
2023-06-30T15:16:50.619Z,63.17
2023-06-30T15:19:18.588Z,63.79
2023-06-30T15:21:46.530Z,64.75
2023-06-30T15:24:14.462Z,67.45
2023-06-30T15:26:44.416Z,69.13
2023-06-30T15:29:12.299Z,71.84
2023-06-30T15:31:40.806Z,73.72
2023-06-30T15:34:09.053Z,75.50
2023-06-30T15:36:36.918Z,75.96
2023-06-30T15:39:05.303Z,77.05
2023-06-30T15:41:33.216Z,78.33
2023-06-30T15:44:02.484Z,78.04
2023-06-30T15:46:30.674Z,79.54
2023-06-30T15:48:58.680Z,79.52
2023-06-30T15:51:26.671Z,79.67
2023-06-30T15:53:54.656Z,80.01
2023-06-30T15:56:22.929Z,80.79
2023-06-30T15:58:50.864Z,80.57
2023-06-30T16:01:20.209Z,80.40
2023-06-30T16:03:48.195Z,81.06
2023-06-30T16:06:16.141Z,80.38
2023-06-30T16:08:44.069Z,80.13
2023-06-30T16:11:13.275Z,79.27
2023-06-30T16:13:41.124Z,79.81
2023-06-30T16:16:09.136Z,80.00
2023-06-30T16:18:38.571Z,80.15
2023-06-30T16:21:06.403Z,80.27
2023-06-30T16:23:34.541Z,80.07
2023-06-30T16:26:02.497Z,80.10
2023-06-30T16:28:30.413Z,79.86
2023-06-30T16:30:58.425Z,79.28
2023-06-30T16:33:26.466Z,79.67
2023-06-30T16:35:55.856Z,79.46
2023-06-30T16:38:23.754Z,79.76
2023-06-30T16:40:51.643Z,79.15
2023-06-30T16:43:19.554Z,81.19
2023-06-30T16:45:48.360Z,81.52
2023-06-30T16:48:16.395Z,82.49
2023-06-30T16:50:44.316Z,82.16
2023-06-30T16:53:13.570Z,81.81
2023-06-30T16:55:41.641Z,81.10
2023-06-30T16:58:09.582Z,79.94
2023-06-30T17:00:37.534Z,78.99
2023-06-30T17:03:05.537Z,78.99
2023-06-30T17:05:33.545Z,78.79
2023-06-30T17:08:01.406Z,76.69
2023-06-30T17:10:31.357Z,76.72
2023-06-30T17:12:59.946Z,78.02
2023-06-30T17:15:28.261Z,78.01
2023-06-30T17:17:56.259Z,77.89
2023-06-30T17:20:24.124Z,76.86
2023-06-30T17:22:52.085Z,75.36
2023-06-30T17:25:20.018Z,75.10
2023-06-30T17:27:49.321Z,75.38
2023-06-30T17:30:17.368Z,75.17
2023-06-30T17:32:45.310Z,75.38
2023-06-30T17:35:13.334Z,75.64
2023-06-30T17:37:41.232Z,76.10
2023-06-30T17:40:09.983Z,76.26
2023-06-30T17:42:37.916Z,76.07
2023-06-30T17:45:08.412Z,76.54
2023-06-30T17:47:36.418Z,73.85
2023-06-30T17:50:04.469Z,73.53
2023-06-30T17:52:32.603Z,74.02
2023-06-30T17:55:00.533Z,73.42
2023-06-30T17:57:28.652Z,73.62
2023-06-30T17:59:56.640Z,74.06
2023-06-30T18:02:26.025Z,74.34
2023-06-30T18:04:54.281Z,73.64
2023-06-30T18:07:22.395Z,74.10
2023-06-30T18:09:50.459Z,73.92
2023-06-30T18:12:18.321Z,74.14
2023-06-30T18:14:46.226Z,74.89
2023-06-30T18:17:16.114Z,73.62
2023-06-30T18:19:45.369Z,73.58
2023-06-30T18:22:14.417Z,73.08
2023-06-30T18:24:42.407Z,73.99
2023-06-30T18:27:10.368Z,74.30
2023-06-30T18:29:40.309Z,74.24
2023-06-30T18:32:09.029Z,74.23
2023-06-30T18:34:37.035Z,74.40
2023-06-30T18:37:08.575Z,75.16
2023-06-30T18:39:36.669Z,76.11
2023-06-30T18:42:04.972Z,76.46
2023-06-30T18:44:32.895Z,75.96
2023-06-30T18:47:01.740Z,75.85
2023-06-30T18:49:29.613Z,76.03
2023-06-30T18:51:57.552Z,76.16
2023-06-30T18:54:26.828Z,76.24
2023-06-30T18:56:54.704Z,75.82
2023-06-30T18:59:23.669Z,76.66
2023-06-30T19:01:51.856Z,77.13
2023-06-30T19:04:20.046Z,77.02
2023-06-30T19:06:48.610Z,77.50
2023-06-30T19:09:17.610Z,78.54
2023-06-30T19:11:46.953Z,78.67
2023-06-30T19:14:15.130Z,79.07
2023-06-30T19:16:43.021Z,79.54
2023-06-30T19:19:10.991Z,79.70
2023-06-30T19:21:38.972Z,80.39
2023-06-30T19:24:07.579Z,79.88
2023-06-30T19:26:35.815Z,80.18
2023-06-30T19:29:05.516Z,81.56
2023-06-30T19:31:33.543Z,80.58
2023-06-30T19:34:01.412Z,80.90
2023-06-30T19:36:32.720Z,81.60
2023-06-30T19:39:00.781Z,82.00
2023-06-30T19:41:28.833Z,82.17
2023-06-30T19:43:56.821Z,82.10
2023-06-30T19:46:27.958Z,81.12
2023-06-30T19:48:55.974Z,81.83
2023-06-30T19:51:23.972Z,81.24
2023-06-30T19:53:51.880Z,81.63
2023-06-30T19:56:19.965Z,81.91
2023-06-30T19:58:47.986Z,81.12
2023-06-30T20:01:18.097Z,81.12
2023-06-30T20:03:47.763Z,81.33
2023-06-30T20:06:15.788Z,81.37
2023-06-30T20:08:43.777Z,80.69
2023-06-30T20:11:13.155Z,80.84
2023-06-30T20:13:41.719Z,81.31
2023-06-30T20:16:10.414Z,81.61
2023-06-30T20:18:38.486Z,81.09
2023-06-30T20:21:07.779Z,80.71
2023-06-30T20:23:35.678Z,80.94
2023-06-30T20:26:03.673Z,81.25
2023-06-30T20:28:31.609Z,81.54
2023-06-30T20:30:59.817Z,81.24
2023-06-30T20:33:27.922Z,81.16
2023-06-30T20:35:56.907Z,81.74
2023-06-30T20:38:26.365Z,81.65
2023-06-30T20:40:54.348Z,81.50
2023-06-30T20:43:22.317Z,81.49
2023-06-30T20:45:50.269Z,81.93
2023-06-30T20:48:18.148Z,81.71
2023-06-30T20:50:46.242Z,82.07
2023-06-30T20:53:14.402Z,83.10
2023-06-30T20:55:43.668Z,81.96
2023-06-30T20:58:11.581Z,82.22
2023-06-30T21:00:39.510Z,82.00
2023-06-30T21:03:07.573Z,81.58
2023-06-30T21:05:35.563Z,81.74
2023-06-30T21:08:03.518Z,82.00
2023-06-30T21:10:31.491Z,80.31
2023-06-30T21:13:01.927Z,79.81
2023-06-30T21:15:29.967Z,80.03
2023-06-30T21:17:57.959Z,80.32
2023-06-30T21:20:25.936Z,80.18
2023-06-30T21:22:53.771Z,80.86
2023-06-30T21:25:21.851Z,81.41
2023-06-30T21:27:49.840Z,81.54
2023-06-30T21:30:19.305Z,82.21
2023-06-30T21:32:47.901Z,82.69
2023-06-30T21:35:15.893Z,83.15
2023-06-30T21:37:43.723Z,83.75
2023-06-30T21:40:13.922Z,83.84
2023-06-30T21:42:41.882Z,84.19
2023-06-30T21:45:10.376Z,84.88
2023-06-30T21:47:39.675Z,84.93
2023-06-30T21:50:08.754Z,85.04
2023-06-30T21:52:36.739Z,85.01
2023-06-30T21:55:05.062Z,85.31
2023-06-30T21:57:32.958Z,85.05
2023-06-30T22:00:00.871Z,85.43
2023-06-30T22:02:28.941Z,85.70
2023-06-30T22:04:58.677Z,85.49
2023-06-30T22:07:26.636Z,85.72
2023-06-30T22:09:54.684Z,85.47
2023-06-30T22:12:22.616Z,85.72
2023-06-30T22:14:50.564Z,86.32
2023-06-30T22:17:18.463Z,86.22
2023-06-30T22:19:46.353Z,85.89
2023-06-30T22:22:15.744Z,85.74
2023-06-30T22:24:43.701Z,86.26
2023-06-30T22:27:11.667Z,85.93
2023-06-30T22:29:39.614Z,86.17
2023-06-30T22:32:08.308Z,86.10
2023-06-30T22:34:36.229Z,86.20
2023-06-30T22:37:04.417Z,86.08
2023-06-30T22:39:33.755Z,86.74
2023-06-30T22:42:01.800Z,86.97
2023-06-30T22:44:29.974Z,86.83
2023-06-30T22:46:58.004Z,86.85
2023-06-30T22:49:25.980Z,87.06
2023-06-30T22:51:54.143Z,87.04
2023-06-30T22:54:22.057Z,87.18
2023-06-30T22:56:51.333Z,87.40
2023-06-30T22:59:19.316Z,88.10
2023-06-30T23:01:47.218Z,88.68
2023-06-30T23:04:15.310Z,88.25
2023-06-30T23:06:43.265Z,88.30
2023-06-30T23:09:11.224Z,88.05
2023-06-30T23:11:39.206Z,87.75
2023-06-30T23:14:08.475Z,88.04
2023-06-30T23:16:39.265Z,88.38
2023-06-30T23:19:08.121Z,88.46
2023-06-30T23:21:37.008Z,88.06
2023-06-30T23:24:10.438Z,87.76
2023-06-30T23:26:38.855Z,86.74
2023-06-30T23:29:09.633Z,87.10
2023-06-30T23:31:39.451Z,87.61
2023-06-30T23:34:07.578Z,88.06
2023-06-30T23:36:36.062Z,88.13
2023-06-30T23:39:04.290Z,87.55
2023-06-30T23:41:33.781Z,87.41
2023-06-30T23:44:02.361Z,87.76
2023-06-30T23:46:31.873Z,88.09
2023-06-30T23:49:00.081Z,88.27
2023-06-30T23:51:28.082Z,88.93
2023-06-30T23:53:55.993Z,88.58
2023-06-30T23:56:23.899Z,88.87
2023-06-30T23:58:51.800Z,89.23
